createdAt,value
2017-09-28T00:00:59.664Z,997.48
2017-09-28T00:01:59.664Z,997.48
2017-09-28T00:02:59.667Z,997.48
2017-09-28T00:03:59.664Z,997.46
2017-09-28T00:04:59.662Z,997.47
2017-09-28T00:05:59.661Z,997.47
2017-09-28T00:06:59.661Z,997.47
2017-09-28T00:07:59.662Z,997.44
2017-09-28T00:08:59.661Z,997.46
2017-09-28T00:09:59.661Z,997.42
2017-09-28T00:10:59.661Z,997.46
2017-09-28T00:11:59.659Z,997.54
2017-09-28T00:12:59.662Z,997.51
2017-09-28T00:13:59.662Z,997.48
2017-09-28T00:14:59.663Z,997.48
2017-09-28T00:15:59.665Z,997.5
2017-09-28T00:16:59.662Z,997.49
2017-09-28T00:17:59.668Z,997.47
2017-09-28T00:18:59.665Z,997.54
2017-09-28T00:19:59.663Z,997.53
2017-09-28T00:20:59.694Z,997.52
2017-09-28T00:21:59.664Z,997.51
2017-09-28T00:22:59.656Z,997.54
2017-09-28T00:23:59.654Z,997.52
2017-09-28T00:24:59.666Z,997.52
2017-09-28T00:25:59.655Z,997.53
2017-09-28T00:26:59.653Z,997.54
2017-09-28T00:27:59.654Z,997.54
2017-09-28T00:28:59.653Z,997.55
2017-09-28T00:30:00.703Z,997.59
2017-09-28T00:30:59.651Z,997.57
2017-09-28T00:31:59.651Z,997.58
2017-09-28T00:32:59.651Z,997.61
2017-09-28T00:33:59.654Z,997.6
2017-09-28T00:34:59.650Z,997.63
2017-09-28T00:35:59.650Z,997.61
2017-09-28T00:36:59.649Z,997.61
2017-09-28T00:37:59.649Z,997.62
2017-09-28T00:38:59.649Z,997.64
2017-09-28T00:39:59.648Z,997.59
2017-09-28T00:40:59.648Z,997.6
2017-09-28T00:41:59.647Z,997.56
2017-09-28T00:42:59.647Z,997.58
2017-09-28T00:43:59.647Z,997.54
2017-09-28T00:44:59.646Z,997.55
2017-09-28T00:45:59.648Z,997.55
2017-09-28T00:46:59.648Z,997.53
2017-09-28T00:47:59.646Z,997.58
2017-09-28T00:48:59.644Z,997.57
2017-09-28T00:49:59.644Z,997.64
2017-09-28T00:50:59.643Z,997.6
2017-09-28T00:51:59.643Z,997.58
2017-09-28T00:52:59.642Z,997.62
2017-09-28T00:53:59.643Z,997.6
2017-09-28T00:54:59.641Z,997.6
2017-09-28T00:55:59.640Z,997.6
2017-09-28T00:56:59.639Z,997.59
2017-09-28T00:57:59.639Z,997.59
2017-09-28T00:58:59.640Z,997.61
2017-09-28T00:59:59.640Z,997.6
2017-09-28T01:00:59.638Z,997.6
2017-09-28T01:01:59.638Z,997.6
2017-09-28T01:02:59.641Z,997.62
2017-09-28T01:03:59.638Z,997.6
2017-09-28T01:04:59.638Z,997.58
2017-09-28T01:05:59.643Z,997.56
2017-09-28T01:06:59.640Z,997.56
2017-09-28T01:07:59.642Z,997.59
2017-09-28T01:08:59.641Z,997.55
2017-09-28T01:09:59.641Z,997.57
2017-09-28T01:10:59.631Z,997.51
2017-09-28T01:11:59.631Z,997.56
2017-09-28T01:12:59.631Z,997.5
2017-09-28T01:13:59.630Z,997.52
2017-09-28T01:14:59.629Z,997.54
2017-09-28T01:15:59.629Z,997.54
2017-09-28T01:16:59.631Z,997.58
2017-09-28T01:17:59.630Z,997.61
2017-09-28T01:18:59.636Z,997.61
2017-09-28T01:19:59.632Z,997.59
2017-09-28T01:20:59.632Z,997.62
2017-09-28T01:21:59.622Z,997.66
2017-09-28T01:22:59.622Z,997.63
2017-09-28T01:23:59.633Z,997.61
2017-09-28T01:24:59.621Z,997.61
2017-09-28T01:26:00.420Z,997.59
2017-09-28T01:26:59.618Z,997.58
2017-09-28T01:27:59.619Z,997.56
2017-09-28T01:28:59.616Z,997.56
2017-09-28T01:29:59.616Z,997.54
2017-09-28T01:30:59.615Z,997.53
2017-09-28T01:31:59.615Z,997.55
2017-09-28T01:32:59.613Z,997.56
2017-09-28T01:33:59.611Z,997.5
2017-09-28T01:34:59.612Z,997.51
2017-09-28T01:35:59.611Z,997.54
2017-09-28T01:36:59.612Z,997.52
2017-09-28T01:37:59.609Z,997.5
2017-09-28T01:38:59.609Z,997.46
2017-09-28T01:39:59.610Z,997.53
2017-09-28T01:40:59.606Z,997.52
2017-09-28T01:41:59.608Z,997.48
2017-09-28T01:42:59.605Z,997.48
2017-09-28T01:43:59.605Z,997.46
2017-09-28T01:44:59.603Z,997.48
2017-09-28T01:45:59.602Z,997.47
2017-09-28T01:46:59.603Z,997.45
2017-09-28T01:47:59.600Z,997.45
2017-09-28T01:48:59.604Z,997.48
2017-09-28T01:49:59.599Z,997.45
2017-09-28T01:50:59.604Z,997.5
2017-09-28T01:51:59.601Z,997.46
2017-09-28T01:52:59.602Z,997.45
2017-09-28T01:53:59.600Z,997.45
2017-09-28T01:54:59.603Z,997.42
2017-09-28T01:55:59.601Z,997.43
2017-09-28T01:56:59.604Z,997.44
2017-09-28T01:57:59.601Z,997.46
2017-09-28T01:58:59.590Z,997.44
2017-09-28T01:59:59.593Z,997.44
2017-09-28T02:00:59.588Z,997.44
2017-09-28T02:01:59.587Z,997.48
2017-09-28T02:02:59.586Z,997.45
2017-09-28T02:03:59.585Z,997.46
2017-09-28T02:04:59.583Z,997.44
2017-09-28T02:05:59.583Z,997.48
2017-09-28T02:06:59.582Z,997.48
2017-09-28T02:07:59.581Z,997.46
2017-09-28T02:08:59.581Z,997.44
2017-09-28T02:09:59.580Z,997.45
2017-09-28T02:10:59.580Z,997.44
2017-09-28T02:11:59.579Z,997.42
2017-09-28T02:12:59.580Z,997.43
2017-09-28T02:13:59.577Z,997.52
2017-09-28T02:14:59.576Z,997.48
2017-09-28T02:15:59.575Z,997.52
2017-09-28T02:16:59.574Z,997.5
2017-09-28T02:17:59.573Z,997.54
2017-09-28T02:18:59.573Z,997.51
2017-09-28T02:19:59.571Z,997.58
2017-09-28T02:20:59.570Z,997.62
2017-09-28T02:21:59.569Z,997.61
2017-09-28T02:22:59.576Z,997.6
2017-09-28T02:23:59.566Z,997.64
2017-09-28T02:24:59.567Z,997.61
2017-09-28T02:25:59.565Z,997.65
2017-09-28T02:26:59.563Z,997.62
2017-09-28T02:27:59.562Z,997.61
2017-09-28T02:28:59.562Z,997.58
2017-09-28T02:29:59.572Z,997.61
2017-09-28T02:30:59.567Z,997.6
2017-09-28T02:31:59.561Z,997.62
2017-09-28T02:32:59.559Z,997.58
2017-09-28T02:33:59.562Z,997.57
2017-09-28T02:34:59.560Z,997.6
2017-09-28T02:35:59.560Z,997.59
2017-09-28T02:36:59.571Z,997.56
2017-09-28T02:37:59.560Z,997.57
2017-09-28T02:38:59.564Z,997.6
2017-09-28T02:39:59.576Z,997.61
2017-09-28T02:40:59.563Z,997.59
2017-09-28T02:41:59.549Z,997.61
2017-09-28T02:42:59.550Z,997.53
2017-09-28T02:43:59.548Z,997.57
2017-09-28T02:44:59.547Z,997.64
2017-09-28T02:45:59.546Z,997.61
2017-09-28T02:46:59.545Z,997.6
2017-09-28T02:47:59.544Z,997.58
2017-09-28T02:48:59.548Z,997.63
2017-09-28T02:49:59.542Z,997.69
2017-09-28T02:50:59.542Z,997.67
2017-09-28T02:51:59.540Z,997.66
2017-09-28T02:52:59.539Z,997.7
2017-09-28T02:53:59.538Z,997.67
2017-09-28T02:54:59.536Z,997.68
2017-09-28T02:55:59.536Z,997.72
2017-09-28T02:56:59.540Z,997.74
2017-09-28T02:57:59.534Z,997.74
2017-09-28T02:58:59.533Z,997.71
2017-09-28T02:59:59.533Z,997.74
2017-09-28T03:00:59.531Z,997.72
2017-09-28T03:01:59.530Z,997.73
2017-09-28T03:02:59.530Z,997.74
2017-09-28T03:03:59.527Z,997.77
2017-09-28T03:04:59.526Z,997.75
2017-09-28T03:05:59.526Z,997.73
2017-09-28T03:06:59.524Z,997.78
2017-09-28T03:07:59.523Z,997.78
2017-09-28T03:08:59.522Z,997.71
2017-09-28T03:09:59.522Z,997.71
2017-09-28T03:10:59.521Z,997.74
2017-09-28T03:11:59.520Z,997.71
2017-09-28T03:12:59.518Z,997.75
2017-09-28T03:13:59.518Z,997.72
2017-09-28T03:14:59.514Z,997.75
2017-09-28T03:15:59.514Z,997.71
2017-09-28T03:16:59.513Z,997.7
2017-09-28T03:17:59.513Z,997.75
2017-09-28T03:18:59.511Z,997.71
2017-09-28T03:19:59.510Z,997.72
2017-09-28T03:20:59.510Z,997.74
2017-09-28T03:21:59.509Z,997.72
2017-09-28T03:22:59.509Z,997.74
2017-09-28T03:23:59.506Z,997.69
2017-09-28T03:24:59.506Z,997.7
2017-09-28T03:25:59.503Z,997.75
2017-09-28T03:26:59.503Z,997.73
2017-09-28T03:27:59.503Z,997.79
2017-09-28T03:28:59.502Z,997.74
2017-09-28T03:29:59.498Z,997.71
2017-09-28T03:30:59.499Z,997.73
2017-09-28T03:31:59.498Z,997.78
2017-09-28T03:32:59.501Z,997.81
2017-09-28T03:33:59.496Z,997.81
2017-09-28T03:34:59.496Z,997.83
2017-09-28T03:35:59.499Z,997.8
2017-09-28T03:36:59.493Z,997.85
2017-09-28T03:37:59.491Z,997.85
2017-09-28T03:38:59.490Z,997.86
2017-09-28T03:39:59.497Z,997.88
2017-09-28T03:40:59.488Z,997.85
2017-09-28T03:41:59.487Z,997.9
2017-09-28T03:42:59.485Z,997.9
2017-09-28T03:43:59.487Z,997.92
2017-09-28T03:44:59.484Z,997.91
2017-09-28T03:45:59.487Z,997.93
2017-09-28T03:47:01.085Z,997.93
2017-09-28T03:47:59.490Z,997.9
2017-09-28T03:48:59.480Z,997.93
2017-09-28T03:49:59.479Z,997.93
2017-09-28T03:50:59.478Z,997.96
2017-09-28T03:51:59.476Z,997.94
2017-09-28T03:52:59.475Z,997.92
2017-09-28T03:53:59.475Z,997.95
2017-09-28T03:54:59.475Z,997.93
2017-09-28T03:55:59.473Z,997.91
2017-09-28T03:56:59.471Z,997.93
2017-09-28T03:57:59.470Z,997.9
2017-09-28T03:58:59.471Z,997.94
2017-09-28T03:59:59.469Z,997.94
2017-09-28T04:00:59.467Z,997.91
2017-09-28T04:01:59.470Z,997.94
2017-09-28T04:02:59.469Z,997.93
2017-09-28T04:03:59.470Z,997.91
2017-09-28T04:04:59.471Z,997.93
2017-09-28T04:05:59.470Z,997.94
2017-09-28T04:06:59.462Z,997.98
2017-09-28T04:07:59.459Z,997.97
2017-09-28T04:08:59.459Z,997.95
2017-09-28T04:09:59.459Z,998.02
2017-09-28T04:10:59.456Z,998.07
2017-09-28T04:11:59.456Z,998.04
2017-09-28T04:12:59.454Z,998.04
2017-09-28T04:13:59.455Z,998.03
2017-09-28T04:14:59.462Z,998.05
2017-09-28T04:15:59.452Z,998.04
2017-09-28T04:16:59.450Z,998.05
2017-09-28T04:17:59.450Z,998.03
2017-09-28T04:18:59.448Z,998.04
2017-09-28T04:19:59.448Z,998.03
2017-09-28T04:20:59.444Z,998.02
2017-09-28T04:21:59.443Z,998.04
2017-09-28T04:22:59.442Z,998.02
2017-09-28T04:23:59.441Z,998.03
2017-09-28T04:24:59.443Z,998
2017-09-28T04:25:59.439Z,998
2017-09-28T04:26:59.438Z,998.04
2017-09-28T04:27:59.436Z,998
2017-09-28T04:28:59.435Z,998.01
2017-09-28T04:29:59.435Z,998.02
2017-09-28T04:30:59.435Z,998.02
2017-09-28T04:31:59.432Z,998.05
2017-09-28T04:32:59.432Z,998.06
2017-09-28T04:33:59.436Z,997.99
2017-09-28T04:34:59.429Z,998.06
2017-09-28T04:35:59.429Z,998.09
2017-09-28T04:36:59.427Z,998.04
2017-09-28T04:37:59.427Z,998.03
2017-09-28T04:38:59.431Z,997.99
2017-09-28T04:39:59.428Z,997.94
2017-09-28T04:40:59.426Z,997.99
2017-09-28T04:41:59.429Z,997.97
2017-09-28T04:42:59.429Z,997.91
2017-09-28T04:43:59.427Z,997.95
2017-09-28T04:44:59.435Z,997.92
2017-09-28T04:45:59.418Z,997.94
2017-09-28T04:46:59.416Z,997.98
2017-09-28T04:47:59.430Z,997.95
2017-09-28T04:48:59.419Z,997.93
2017-09-28T04:49:59.413Z,997.96
2017-09-28T04:50:59.412Z,997.97
2017-09-28T04:51:59.411Z,997.93
2017-09-28T04:52:59.415Z,997.99
2017-09-28T04:53:59.409Z,997.95
2017-09-28T04:54:59.408Z,997.97
2017-09-28T04:55:59.418Z,997.92
2017-09-28T04:56:59.407Z,997.93
2017-09-28T04:57:59.404Z,997.9
2017-09-28T04:58:59.403Z,997.93
2017-09-28T04:59:59.402Z,997.94
2017-09-28T05:00:59.407Z,997.94
2017-09-28T05:01:59.401Z,997.9
2017-09-28T05:02:59.430Z,997.92
2017-09-28T05:03:59.398Z,997.91
2017-09-28T05:04:59.396Z,997.91
2017-09-28T05:05:59.397Z,997.9
2017-09-28T05:06:59.399Z,997.9
2017-09-28T05:07:59.394Z,997.88
2017-09-28T05:08:59.397Z,997.92
2017-09-28T05:09:59.396Z,997.93
2017-09-28T05:10:59.396Z,997.97
2017-09-28T05:11:59.390Z,998
2017-09-28T05:12:59.388Z,997.96
2017-09-28T05:13:59.387Z,997.96
2017-09-28T05:14:59.386Z,997.98
2017-09-28T05:15:59.385Z,998.01
2017-09-28T05:16:59.384Z,998
2017-09-28T05:17:59.382Z,998
2017-09-28T05:18:59.387Z,998.05
2017-09-28T05:19:59.383Z,998.03
2017-09-28T05:20:59.385Z,998.06
2017-09-28T05:21:59.378Z,998.1
2017-09-28T05:22:59.378Z,998.07
2017-09-28T05:23:59.378Z,998.1
2017-09-28T05:24:59.375Z,998.08
2017-09-28T05:25:59.374Z,998.09
2017-09-28T05:26:59.372Z,998.09
2017-09-28T05:27:59.376Z,998.07
2017-09-28T05:28:59.381Z,998.08
2017-09-28T05:29:59.369Z,998.09
2017-09-28T05:30:59.369Z,998.09
2017-09-28T05:31:59.370Z,998.09
2017-09-28T05:33:02.721Z,998.13
2017-09-28T05:33:59.362Z,998.11
2017-09-28T05:34:59.364Z,998.11
2017-09-28T05:35:59.363Z,998.07
2017-09-28T05:36:59.361Z,998.09
2017-09-28T05:37:59.359Z,998.12
2017-09-28T05:38:59.360Z,998.12
2017-09-28T05:39:59.358Z,998.17
2017-09-28T05:40:59.355Z,998.2
2017-09-28T05:41:59.354Z,998.19
2017-09-28T05:42:59.356Z,998.21
2017-09-28T05:43:59.356Z,998.22
2017-09-28T05:44:59.355Z,998.22
2017-09-28T05:45:59.359Z,998.24
2017-09-28T05:46:59.355Z,998.23
2017-09-28T05:47:59.353Z,998.27
2017-09-28T05:48:59.347Z,998.3
2017-09-28T05:49:59.345Z,998.32
2017-09-28T05:50:59.344Z,998.31
2017-09-28T05:51:59.343Z,998.33
2017-09-28T05:52:59.342Z,998.33
2017-09-28T05:53:59.341Z,998.31
2017-09-28T05:54:59.339Z,998.31
2017-09-28T05:55:59.339Z,998.3
2017-09-28T05:56:59.338Z,998.29
2017-09-28T05:57:59.338Z,998.36
2017-09-28T05:58:59.337Z,998.36
2017-09-28T05:59:59.335Z,998.33
2017-09-28T06:00:59.342Z,998.36
2017-09-28T06:01:59.334Z,998.4
2017-09-28T06:02:59.332Z,998.42
2017-09-28T06:03:59.331Z,998.44
2017-09-28T06:04:59.331Z,998.45
2017-09-28T06:05:59.330Z,998.46
2017-09-28T06:06:59.329Z,998.41
2017-09-28T06:07:59.330Z,998.42
2017-09-28T06:08:59.327Z,998.39
2017-09-28T06:09:59.326Z,998.38
2017-09-28T06:10:59.325Z,998.34
2017-09-28T06:11:59.323Z,998.37
2017-09-28T06:12:59.323Z,998.33
2017-09-28T06:13:59.322Z,998.36
2017-09-28T06:14:59.324Z,998.32
2017-09-28T06:15:59.319Z,998.36
2017-09-28T06:16:59.318Z,998.37
2017-09-28T06:17:59.320Z,998.39
2017-09-28T06:18:59.317Z,998.39
2017-09-28T06:19:59.315Z,998.43
2017-09-28T06:20:59.314Z,998.42
2017-09-28T06:21:59.313Z,998.42
2017-09-28T06:22:59.311Z,998.42
2017-09-28T06:23:59.311Z,998.47
2017-09-28T06:24:59.308Z,998.44
2017-09-28T06:25:59.307Z,998.46
2017-09-28T06:26:59.306Z,998.41
2017-09-28T06:27:59.305Z,998.48
2017-09-28T06:28:59.303Z,998.46
2017-09-28T06:29:59.302Z,998.44
2017-09-28T06:30:59.301Z,998.43
2017-09-28T06:31:59.300Z,998.46
2017-09-28T06:32:59.298Z,998.44
2017-09-28T06:33:59.301Z,998.43
2017-09-28T06:34:59.296Z,998.43
2017-09-28T06:35:59.295Z,998.45
2017-09-28T06:36:59.293Z,998.5
2017-09-28T06:37:59.293Z,998.48
2017-09-28T06:38:59.291Z,998.5
2017-09-28T06:39:59.291Z,998.52
2017-09-28T06:40:59.317Z,998.49
2017-09-28T06:41:59.292Z,998.52
2017-09-28T06:42:59.288Z,998.55
2017-09-28T06:43:59.289Z,998.54
2017-09-28T06:44:59.287Z,998.57
2017-09-28T06:45:59.286Z,998.54
2017-09-28T06:46:59.284Z,998.54
2017-09-28T06:47:59.285Z,998.57
2017-09-28T06:48:59.286Z,998.6
2017-09-28T06:49:59.284Z,998.57
2017-09-28T06:50:59.282Z,998.52
2017-09-28T06:51:59.281Z,998.53
2017-09-28T06:52:59.283Z,998.51
2017-09-28T06:53:59.281Z,998.54
2017-09-28T06:54:59.281Z,998.51
2017-09-28T06:55:59.280Z,998.58
2017-09-28T06:56:59.281Z,998.55
2017-09-28T06:57:59.279Z,998.53
2017-09-28T06:58:59.278Z,998.54
2017-09-28T06:59:59.277Z,998.59
2017-09-28T07:00:59.279Z,998.59
2017-09-28T07:01:59.276Z,998.62
2017-09-28T07:02:59.276Z,998.6
2017-09-28T07:04:00.543Z,998.63
2017-09-28T07:04:59.276Z,998.62
2017-09-28T07:05:59.276Z,998.62
2017-09-28T07:06:59.277Z,998.57
2017-09-28T07:07:59.277Z,998.58
2017-09-28T07:08:59.275Z,998.58
2017-09-28T07:09:59.277Z,998.63
2017-09-28T07:10:59.276Z,998.63
2017-09-28T07:11:59.276Z,998.66
2017-09-28T07:12:59.276Z,998.73
2017-09-28T07:13:59.277Z,998.65
2017-09-28T07:14:59.278Z,998.69
2017-09-28T07:15:59.278Z,998.68
2017-09-28T07:16:59.279Z,998.7
2017-09-28T07:17:59.280Z,998.71
2017-09-28T07:18:59.280Z,998.67
2017-09-28T07:19:59.281Z,998.69
2017-09-28T07:20:59.282Z,998.68
2017-09-28T07:21:59.283Z,998.69
2017-09-28T07:22:59.283Z,998.71
2017-09-28T07:23:59.284Z,998.69
2017-09-28T07:24:59.285Z,998.71
2017-09-28T07:25:59.286Z,998.69
2017-09-28T07:26:59.288Z,998.72
2017-09-28T07:27:59.288Z,998.72
2017-09-28T07:28:59.291Z,998.73
2017-09-28T07:29:59.291Z,998.7
2017-09-28T07:30:59.293Z,998.72
2017-09-28T07:31:59.294Z,998.68
2017-09-28T07:32:59.296Z,998.69
2017-09-28T07:33:59.298Z,998.74
2017-09-28T07:34:59.299Z,998.74
2017-09-28T07:35:59.301Z,998.76
2017-09-28T07:36:59.304Z,998.76
2017-09-28T07:37:59.305Z,998.75
2017-09-28T07:38:59.307Z,998.77
2017-09-28T07:39:59.308Z,998.78
2017-09-28T07:40:59.311Z,998.8
2017-09-28T07:41:59.312Z,998.77
2017-09-28T07:42:59.316Z,998.77
2017-09-28T07:43:59.317Z,998.75
2017-09-28T07:44:59.320Z,998.79
2017-09-28T07:45:59.336Z,998.81
2017-09-28T07:46:59.325Z,998.81
2017-09-28T07:47:59.327Z,998.81
2017-09-28T07:48:59.327Z,998.82
2017-09-28T07:49:59.331Z,998.82
2017-09-28T07:50:59.333Z,998.87
2017-09-28T07:51:59.341Z,998.91
2017-09-28T07:52:59.337Z,998.87
2017-09-28T07:53:59.339Z,998.88
2017-09-28T07:54:59.347Z,998.89
2017-09-28T07:55:59.344Z,998.9
2017-09-28T07:56:59.345Z,998.87
2017-09-28T07:57:59.348Z,998.9
2017-09-28T07:58:59.350Z,998.92
2017-09-28T07:59:59.352Z,998.9
2017-09-28T08:00:59.356Z,998.92
2017-09-28T08:01:59.358Z,998.9
2017-09-28T08:02:59.360Z,998.92
2017-09-28T08:03:59.364Z,998.96
2017-09-28T08:04:59.364Z,999
2017-09-28T08:05:59.369Z,999.01
2017-09-28T08:06:59.371Z,998.99
2017-09-28T08:07:59.373Z,998.96
2017-09-28T08:08:59.374Z,999
2017-09-28T08:09:59.385Z,999
2017-09-28T08:10:59.381Z,999
2017-09-28T08:11:59.384Z,998.95
2017-09-28T08:12:59.412Z,999.01
2017-09-28T08:13:59.395Z,998.98
2017-09-28T08:14:59.394Z,998.95
2017-09-28T08:15:59.397Z,998.94
2017-09-28T08:16:59.404Z,998.91
2017-09-28T08:17:59.403Z,998.94
2017-09-28T08:18:59.406Z,998.89
2017-09-28T08:19:59.410Z,998.81
2017-09-28T08:20:59.413Z,998.8
2017-09-28T08:21:59.414Z,998.8
2017-09-28T08:22:59.417Z,998.8
2017-09-28T08:23:59.421Z,998.78
2017-09-28T08:24:59.428Z,998.82
2017-09-28T08:25:59.431Z,998.8
2017-09-28T08:26:59.434Z,998.82
2017-09-28T08:27:59.431Z,998.85
2017-09-28T08:28:59.442Z,998.82
2017-09-28T08:29:59.439Z,998.84
2017-09-28T08:30:59.439Z,998.85
2017-09-28T08:31:59.452Z,998.83
2017-09-28T08:32:59.445Z,998.83
2017-09-28T08:33:59.454Z,998.81
2017-09-28T08:34:59.453Z,998.82
2017-09-28T08:35:59.457Z,998.79
2017-09-28T08:36:59.457Z,998.82
2017-09-28T08:37:59.459Z,998.8
2017-09-28T08:38:59.462Z,998.81
2017-09-28T08:39:59.464Z,998.77
2017-09-28T08:40:59.466Z,998.79
2017-09-28T08:41:59.469Z,998.75
2017-09-28T08:42:59.472Z,998.74
2017-09-28T08:43:59.473Z,998.75
2017-09-28T08:44:59.476Z,998.77
2017-09-28T08:45:59.479Z,998.74
2017-09-28T08:46:59.482Z,998.76
2017-09-28T08:47:59.483Z,998.76
2017-09-28T08:48:59.487Z,998.75
2017-09-28T08:49:59.495Z,998.74
2017-09-28T08:50:59.492Z,998.76
2017-09-28T08:51:59.501Z,998.77
2017-09-28T08:52:59.508Z,998.78
2017-09-28T08:53:59.501Z,998.78
2017-09-28T08:54:59.503Z,998.77
2017-09-28T08:55:59.505Z,998.82
2017-09-28T08:56:59.508Z,998.82
2017-09-28T08:57:59.510Z,998.8
2017-09-28T08:58:59.513Z,998.77
2017-09-28T08:59:59.518Z,998.8
2017-09-28T09:00:59.520Z,998.82
2017-09-28T09:01:59.522Z,998.82
2017-09-28T09:02:59.526Z,998.78
2017-09-28T09:03:59.529Z,998.79
2017-09-28T09:05:03.536Z,998.84
2017-09-28T09:05:59.534Z,998.83
2017-09-28T09:06:59.538Z,998.86
2017-09-28T09:07:59.551Z,998.87
2017-09-28T09:08:59.553Z,998.85
2017-09-28T09:09:59.553Z,998.86
2017-09-28T09:10:59.557Z,998.82
2017-09-28T09:11:59.555Z,998.79
2017-09-28T09:12:59.558Z,998.78
2017-09-28T09:13:59.564Z,998.76
2017-09-28T09:14:59.561Z,998.76
2017-09-28T09:15:59.565Z,998.78
2017-09-28T09:16:59.569Z,998.76
2017-09-28T09:17:59.572Z,998.72
2017-09-28T09:18:59.603Z,998.76
2017-09-28T09:19:59.579Z,998.72
2017-09-28T09:20:59.581Z,998.73
2017-09-28T09:21:59.587Z,998.69
2017-09-28T09:22:59.588Z,998.74
2017-09-28T09:23:59.592Z,998.67
2017-09-28T09:24:59.611Z,998.66
2017-09-28T09:25:59.606Z,998.68
2017-09-28T09:26:59.603Z,998.68
2017-09-28T09:27:59.604Z,998.62
2017-09-28T09:28:59.607Z,998.6
2017-09-28T09:29:59.610Z,998.61
2017-09-28T09:30:59.622Z,998.64
2017-09-28T09:31:59.620Z,998.61
2017-09-28T09:32:59.624Z,998.58
2017-09-28T09:33:59.621Z,998.62
2017-09-28T09:34:59.626Z,998.64
2017-09-28T09:35:59.627Z,998.56
2017-09-28T09:36:59.632Z,998.56
2017-09-28T09:37:59.635Z,998.52
2017-09-28T09:38:59.638Z,998.56
2017-09-28T09:39:59.640Z,998.51
2017-09-28T09:40:59.643Z,998.51
2017-09-28T09:41:59.649Z,998.51
2017-09-28T09:42:59.649Z,998.5
2017-09-28T09:43:59.652Z,998.53
2017-09-28T09:44:59.655Z,998.59
2017-09-28T09:45:59.657Z,998.64
2017-09-28T09:46:59.661Z,998.64
2017-09-28T09:47:59.665Z,998.64
2017-09-28T09:48:59.672Z,998.65
2017-09-28T09:49:59.678Z,998.63
2017-09-28T09:50:59.681Z,998.67
2017-09-28T09:51:59.677Z,998.63
2017-09-28T09:52:59.680Z,998.63
2017-09-28T09:53:59.691Z,998.66
2017-09-28T09:54:59.689Z,998.64
2017-09-28T09:55:59.691Z,998.64
2017-09-28T09:56:59.694Z,998.62
2017-09-28T09:57:59.710Z,998.64
2017-09-28T09:58:59.703Z,998.58
2017-09-28T09:59:59.706Z,998.57
2017-09-28T10:00:59.737Z,998.59
2017-09-28T10:01:59.750Z,998.56
2017-09-28T10:02:59.716Z,998.58
2017-09-28T10:03:59.721Z,998.56
2017-09-28T10:04:59.725Z,998.59
2017-09-28T10:05:59.772Z,998.56
2017-09-28T10:06:59.738Z,998.57
2017-09-28T10:07:59.736Z,998.52
2017-09-28T10:08:59.740Z,998.59
2017-09-28T10:09:59.744Z,998.6
2017-09-28T10:10:59.748Z,998.56
2017-09-28T10:11:59.755Z,998.57
2017-09-28T10:12:59.758Z,998.56
2017-09-28T10:13:59.760Z,998.59
2017-09-28T10:14:59.777Z,998.58
2017-09-28T10:15:59.778Z,998.51
2017-09-28T10:16:59.775Z,998.49
2017-09-28T10:17:59.785Z,998.52
2017-09-28T10:18:59.784Z,998.51
2017-09-28T10:19:59.784Z,998.51
2017-09-28T10:20:59.793Z,998.48
2017-09-28T10:21:59.791Z,998.48
2017-09-28T10:22:59.795Z,998.47
2017-09-28T10:23:59.813Z,998.43
2017-09-28T10:24:59.806Z,998.44
2017-09-28T10:25:59.810Z,998.41
2017-09-28T10:26:59.813Z,998.46
2017-09-28T10:27:59.816Z,998.44
2017-09-28T10:28:59.833Z,998.45
2017-09-28T10:29:59.824Z,998.41
2017-09-28T10:30:59.828Z,998.38
2017-09-28T10:31:59.843Z,998.39
2017-09-28T10:32:59.843Z,998.39
2017-09-28T10:33:59.845Z,998.38
2017-09-28T10:34:59.844Z,998.38
2017-09-28T10:36:01.702Z,998.37
2017-09-28T10:36:59.851Z,998.35
2017-09-28T10:37:59.855Z,998.33
2017-09-28T10:38:59.859Z,998.39
2017-09-28T10:39:59.865Z,998.37
2017-09-28T10:40:59.867Z,998.37
2017-09-28T10:41:59.871Z,998.36
2017-09-28T10:42:59.875Z,998.37
2017-09-28T10:43:59.879Z,998.35
2017-09-28T10:44:59.883Z,998.35
2017-09-28T10:45:59.897Z,998.4
2017-09-28T10:46:59.899Z,998.39
2017-09-28T10:47:59.896Z,998.45
2017-09-28T10:48:59.897Z,998.39
2017-09-28T10:49:59.902Z,998.44
2017-09-28T10:50:59.905Z,998.49
2017-09-28T10:51:59.909Z,998.41
2017-09-28T10:52:59.912Z,998.46
2017-09-28T10:53:59.916Z,998.47
2017-09-28T10:54:59.955Z,998.5
2017-09-28T10:55:59.922Z,998.46
2017-09-28T10:56:59.925Z,998.47
2017-09-28T10:57:59.929Z,998.45
2017-09-28T10:58:59.932Z,998.45
2017-09-28T10:59:59.936Z,998.48
2017-09-28T11:00:59.941Z,998.46
2017-09-28T11:01:59.944Z,998.46
2017-09-28T11:02:59.948Z,998.45
2017-09-28T11:03:59.951Z,998.43
2017-09-28T11:04:59.962Z,998.44
2017-09-28T11:05:59.966Z,998.48
2017-09-28T11:06:59.963Z,998.44
2017-09-28T11:07:59.965Z,998.38
2017-09-28T11:08:59.976Z,998.45
2017-09-28T11:09:59.973Z,998.45
2017-09-28T11:10:59.979Z,998.46
2017-09-28T11:11:59.982Z,998.44
2017-09-28T11:12:59.985Z,998.46
2017-09-28T11:13:59.988Z,998.46
2017-09-28T11:15:00.004Z,998.42
2017-09-28T11:16:00.004Z,998.43
2017-09-28T11:17:00.003Z,998.39
2017-09-28T11:18:00.006Z,998.41
2017-09-28T11:19:00.009Z,998.42
2017-09-28T11:20:00.012Z,998.4
2017-09-28T11:21:00.017Z,998.42
2017-09-28T11:22:00.020Z,998.4
2017-09-28T11:23:00.024Z,998.43
2017-09-28T11:24:00.032Z,998.46
2017-09-28T11:25:00.032Z,998.45
2017-09-28T11:26:00.036Z,998.46
2017-09-28T11:27:00.039Z,998.41
2017-09-28T11:28:00.043Z,998.42
2017-09-28T11:29:00.047Z,998.44
2017-09-28T11:30:00.070Z,998.39
2017-09-28T11:31:00.056Z,998.42
2017-09-28T11:32:00.067Z,998.44
2017-09-28T11:33:00.069Z,998.45
2017-09-28T11:34:00.066Z,998.47
2017-09-28T11:35:00.070Z,998.42
2017-09-28T11:36:00.074Z,998.47
2017-09-28T11:37:00.082Z,998.44
2017-09-28T11:38:00.085Z,998.39
2017-09-28T11:39:00.086Z,998.39
2017-09-28T11:40:00.094Z,998.34
2017-09-28T11:41:00.097Z,998.39
2017-09-28T11:42:00.100Z,998.39
2017-09-28T11:43:00.103Z,998.36
2017-09-28T11:44:00.111Z,998.36
2017-09-28T11:45:00.112Z,998.31
2017-09-28T11:46:00.116Z,998.34
2017-09-28T11:47:00.120Z,998.31
2017-09-28T11:48:00.124Z,998.27
2017-09-28T11:49:00.130Z,998.25
2017-09-28T11:50:00.133Z,998.25
2017-09-28T11:51:00.140Z,998.26
2017-09-28T11:52:00.945Z,998.25
2017-09-28T11:53:00.147Z,998.24
2017-09-28T11:54:00.150Z,998.26
2017-09-28T11:55:00.155Z,998.24
2017-09-28T11:56:00.163Z,998.24
2017-09-28T11:57:00.166Z,998.22
2017-09-28T11:58:00.170Z,998.26
2017-09-28T11:59:00.175Z,998.18
2017-09-28T12:00:00.178Z,998.24
2017-09-28T12:01:00.183Z,998.2
2017-09-28T12:02:00.189Z,998.19
2017-09-28T12:03:00.191Z,998.17
2017-09-28T12:04:00.196Z,998.18
2017-09-28T12:05:00.200Z,998.2
2017-09-28T12:06:00.209Z,998.18
2017-09-28T12:07:00.211Z,998.13
2017-09-28T12:08:00.215Z,998.17
2017-09-28T12:09:00.219Z,998.15
2017-09-28T12:10:00.223Z,998.18
2017-09-28T12:11:00.233Z,998.15
2017-09-28T12:12:00.231Z,998.15
2017-09-28T12:13:00.245Z,998.12
2017-09-28T12:14:00.242Z,998.15
2017-09-28T12:15:00.249Z,998.12
2017-09-28T12:16:00.281Z,998.12
2017-09-28T12:17:00.263Z,998.09
2017-09-28T12:18:00.266Z,998.15
2017-09-28T12:19:00.266Z,998.14
2017-09-28T12:20:00.272Z,998.11
2017-09-28T12:21:00.282Z,998.14
2017-09-28T12:22:00.278Z,998.11
2017-09-28T12:23:00.282Z,998.12
2017-09-28T12:24:00.288Z,998.09
2017-09-28T12:25:00.292Z,998.1
2017-09-28T12:26:00.297Z,998.12
2017-09-28T12:27:00.305Z,998.11
2017-09-28T12:28:00.307Z,998.11
2017-09-28T12:29:00.311Z,998.1
2017-09-28T12:30:00.318Z,998.11
2017-09-28T12:31:00.321Z,998.13
2017-09-28T12:32:00.329Z,998.08